Terminal Aerodrome Forecast
Issued by NWS Cleveland, OH

Home | Current Version | Previous Version | Graphics & Text | Print | Product List | Glossary Off
Versions: 1 2 3 4 5 6 7 8 9 10 11 12 13 14 15 16 17 18 19 20 21 22 23 24 25 26 27

000
FTUS41 KCLE 210523
TAFCLE
TAF
KCLE 210523Z 2106/2212 20014G20KT P6SM BKN100
     FM211200 24012KT 5SM -SHRA OVC025
     FM211500 30014KT 3SM -SHRA BR OVC007
     FM211900 35012KT 6SM -SHRA SCT010 OVC020
     FM212200 02010KT P6SM BKN030 OVC200
     FM220800 03010KT 3SM -FZRASNPL OVC020=

USA.gov is the U.S. government's official web portal to all federal, state and local government web resources and services.